createdAt,value
2022-11-17T00:00:43.251Z,3.70
2022-11-17T00:03:16.229Z,3.50
2022-11-17T00:08:12.094Z,3.60
2022-11-17T00:10:39.084Z,3.63
2022-11-17T00:13:24.934Z,3.10
2022-11-17T00:15:51.871Z,3.90
2022-11-17T00:18:37.337Z,3.60
2022-11-17T00:21:21.411Z,3.55
2022-11-17T00:23:50.339Z,3.75
2022-11-17T00:26:27.548Z,3.35
2022-11-17T00:28:57.498Z,3.20
2022-11-17T00:31:44.929Z,3.78
2022-11-17T00:34:17.136Z,3.50
2022-11-17T00:36:50.492Z,3.58
2022-11-17T00:39:22.533Z,3.78
2022-11-17T00:41:50.110Z,3.30
2022-11-17T00:44:17.636Z,4.00
2022-11-17T00:46:45.035Z,3.97
2022-11-17T00:49:13.085Z,3.90
2022-11-17T00:51:40.334Z,4.32
2022-11-17T00:54:11.566Z,4.10
2022-11-17T00:56:38.948Z,3.90
2022-11-17T00:59:05.999Z,4.28
2022-11-17T01:01:33.150Z,4.07
2022-11-17T01:04:04.374Z,3.88
2022-11-17T01:06:50.174Z,3.80
2022-11-17T01:09:23.286Z,3.90
2022-11-17T01:11:52.598Z,4.00
2022-11-17T01:14:28.387Z,3.92
2022-11-17T01:16:56.121Z,4.20
2022-11-17T01:19:24.833Z,4.43
2022-11-17T01:21:52.112Z,4.40
2022-11-17T01:24:19.129Z,4.22
2022-11-17T01:26:46.784Z,4.68
2022-11-17T01:29:18.865Z,5.35
2022-11-17T01:31:50.592Z,4.30
2022-11-17T01:34:17.973Z,4.80
2022-11-17T01:37:03.776Z,5.20
2022-11-17T01:39:32.159Z,5.53
2022-11-17T01:42:05.277Z,5.72
2022-11-17T01:44:55.003Z,4.82
2022-11-17T01:47:55.220Z,5.35
2022-11-17T01:50:41.578Z,5.15
2022-11-17T01:56:11.109Z,5.40
2022-11-17T01:58:45.706Z,5.22
2022-11-17T02:01:12.772Z,5.38
2022-11-17T02:03:41.570Z,5.47
2022-11-17T02:06:17.156Z,5.45
2022-11-17T02:08:47.078Z,5.30
2022-11-17T02:11:19.530Z,5.57
2022-11-17T02:13:48.180Z,5.00
2022-11-17T02:16:17.180Z,4.80
2022-11-17T02:18:46.411Z,4.70
2022-11-17T02:21:56.428Z,5.32
2022-11-17T02:24:38.328Z,5.00
2022-11-17T02:27:32.883Z,4.82
2022-11-17T02:30:12.326Z,4.80
2022-11-17T02:32:52.523Z,4.85
2022-11-17T02:35:54.685Z,4.50
2022-11-17T02:38:39.177Z,4.75
2022-11-17T02:41:34.712Z,4.75
2022-11-17T02:55:35.803Z,5.45
2022-11-17T02:58:02.722Z,5.55
2022-11-17T03:00:35.048Z,4.75
2022-11-17T03:03:45.291Z,4.90
2022-11-17T03:06:30.229Z,5.25
2022-11-17T03:09:18.668Z,5.30
2022-11-17T03:11:57.423Z,4.57
2022-11-17T03:15:15.324Z,5.50
2022-11-17T03:18:05.792Z,5.60
2022-11-17T03:20:54.027Z,5.72
2022-11-17T03:23:49.864Z,6.65
2022-11-17T03:26:31.154Z,6.80
2022-11-17T03:29:02.070Z,6.13
2022-11-17T03:31:32.813Z,6.28
2022-11-17T03:34:03.568Z,6.40
2022-11-17T03:36:40.029Z,6.03
2022-11-17T03:39:24.019Z,5.90
2022-11-17T03:42:01.985Z,5.65
2022-11-17T03:44:34.937Z,5.70
2022-11-17T03:49:52.762Z,5.93
2022-11-17T03:52:20.712Z,5.82
2022-11-17T03:54:48.182Z,6.10
2022-11-17T03:57:34.930Z,5.97
2022-11-17T04:00:10.962Z,6.40
2022-11-17T04:02:43.113Z,5.95
2022-11-17T04:05:12.011Z,6.10
2022-11-17T04:07:46.877Z,5.95
2022-11-17T04:10:19.991Z,6.18
2022-11-17T04:13:09.043Z,5.70
2022-11-17T04:15:55.094Z,5.78
2022-11-17T04:18:23.548Z,5.90
2022-11-17T04:20:56.814Z,6.10
2022-11-17T04:23:25.821Z,5.72
2022-11-17T04:26:14.634Z,6.40
2022-11-17T04:28:47.426Z,5.60
2022-11-17T04:31:28.216Z,5.57
2022-11-17T04:34:01.303Z,5.45
2022-11-17T04:36:32.521Z,5.25
2022-11-17T04:39:01.037Z,4.82
2022-11-17T04:41:48.842Z,4.43
2022-11-17T04:44:17.880Z,5.07
2022-11-17T04:46:48.873Z,4.47
2022-11-17T04:49:18.360Z,6.43
2022-11-17T04:51:46.568Z,6.00
2022-11-17T04:54:17.015Z,6.70
2022-11-17T04:56:45.093Z,4.95
2022-11-17T04:59:12.341Z,4.10
2022-11-17T05:01:39.346Z,4.13
2022-11-17T05:04:35.678Z,3.70
2022-11-17T05:07:05.381Z,4.35
2022-11-17T05:09:32.516Z,5.47
2022-11-17T05:12:18.405Z,3.78
2022-11-17T05:14:47.659Z,3.53
2022-11-17T05:17:14.609Z,3.63
2022-11-17T05:19:47.536Z,3.40
2022-11-17T05:25:04.205Z,3.28
2022-11-17T05:27:31.268Z,3.47
2022-11-17T05:29:58.230Z,3.30
2022-11-17T05:32:25.253Z,3.28
2022-11-17T05:34:52.197Z,3.35
2022-11-17T05:37:19.224Z,3.33
2022-11-17T05:39:46.239Z,3.58
2022-11-17T05:42:13.193Z,3.58
2022-11-17T05:44:40.203Z,3.53
2022-11-17T05:47:07.364Z,3.20
2022-11-17T05:49:34.325Z,3.42
2022-11-17T05:52:01.272Z,3.25
2022-11-17T05:54:28.240Z,3.47
2022-11-17T05:57:09.562Z,3.30
2022-11-17T05:59:55.147Z,3.40
2022-11-17T06:02:33.855Z,3.08
2022-11-17T06:05:01.996Z,3.42
2022-11-17T06:07:29.139Z,3.20
2022-11-17T06:09:57.221Z,3.10
2022-11-17T06:12:24.259Z,2.97
2022-11-17T06:14:51.229Z,3.38
2022-11-17T06:17:35.670Z,3.13
2022-11-17T06:20:28.114Z,3.15
2022-11-17T06:23:00.378Z,3.03
2022-11-17T06:25:29.123Z,3.10
2022-11-17T06:27:57.887Z,3.30
2022-11-17T06:30:24.826Z,3.13
2022-11-17T06:32:53.534Z,3.38
2022-11-17T06:35:20.681Z,3.95
2022-11-17T06:37:47.624Z,3.15
2022-11-17T06:40:15.370Z,3.55
2022-11-17T06:43:01.513Z,3.80
2022-11-17T06:45:28.461Z,3.72
2022-11-17T06:47:55.593Z,3.90
2022-11-17T06:50:22.680Z,3.42
2022-11-17T06:52:49.546Z,3.85
2022-11-17T06:55:16.596Z,4.22
2022-11-17T06:57:46.546Z,4.18
2022-11-17T07:00:16.427Z,4.25
2022-11-17T07:02:43.595Z,3.75
2022-11-17T07:05:10.526Z,4.55
2022-11-17T07:07:37.494Z,3.97
2022-11-17T07:10:04.765Z,4.32
2022-11-17T07:12:33.285Z,4.75
2022-11-17T07:15:00.248Z,4.85
2022-11-17T07:17:27.346Z,4.63
2022-11-17T07:19:54.949Z,4.95
2022-11-17T07:22:21.881Z,5.28
2022-11-17T07:24:48.776Z,5.25
2022-11-17T07:27:15.739Z,5.22
2022-11-17T07:29:42.696Z,4.90
2022-11-17T07:32:13.861Z,4.90
2022-11-17T07:34:44.276Z,4.70
2022-11-17T07:37:11.219Z,4.50
2022-11-17T07:39:38.168Z,4.70
2022-11-17T07:42:05.141Z,4.82
2022-11-17T07:44:32.260Z,4.85
2022-11-17T07:47:02.078Z,4.35
2022-11-17T07:49:29.464Z,4.72
2022-11-17T07:51:56.426Z,4.32
2022-11-17T07:54:23.385Z,4.15
2022-11-17T07:56:50.402Z,4.50
2022-11-17T07:59:21.366Z,4.40
2022-11-17T08:01:48.678Z,4.60
2022-11-17T08:04:16.018Z,4.25
2022-11-17T08:06:42.927Z,4.45
2022-11-17T08:09:10.748Z,5.80
2022-11-17T08:11:37.703Z,5.00
2022-11-17T08:14:04.691Z,6.38
2022-11-17T08:16:32.137Z,5.55
2022-11-17T08:18:59.635Z,5.03
2022-11-17T08:21:26.625Z,5.00
2022-11-17T08:23:55.140Z,5.07
2022-11-17T08:26:25.315Z,4.97
2022-11-17T08:28:57.884Z,5.03
2022-11-17T08:31:25.527Z,5.10
2022-11-17T08:33:52.462Z,5.20
2022-11-17T08:36:19.343Z,4.65
2022-11-17T08:38:46.293Z,5.35
2022-11-17T08:41:13.252Z,5.57
2022-11-17T08:43:40.143Z,5.60
2022-11-17T08:46:12.910Z,6.40
2022-11-17T08:48:40.712Z,5.93
2022-11-17T08:51:09.524Z,6.22
2022-11-17T08:53:39.389Z,6.25
2022-11-17T08:56:12.384Z,6.35
2022-11-17T09:01:15.527Z,5.75
2022-11-17T09:03:44.887Z,6.50
2022-11-17T09:06:13.605Z,6.68
2022-11-17T09:08:48.121Z,6.82
2022-11-17T09:11:16.726Z,6.60
2022-11-17T09:13:45.660Z,7.32
2022-11-17T09:16:12.850Z,6.65
2022-11-17T09:18:41.470Z,7.78
2022-11-17T09:21:15.626Z,8.05
2022-11-17T09:23:43.637Z,7.45
2022-11-17T09:26:14.738Z,7.05
2022-11-17T09:28:42.731Z,6.47
2022-11-17T09:31:16.396Z,6.57
2022-11-17T09:33:44.619Z,6.70
2022-11-17T09:36:14.872Z,7.13
2022-11-17T09:38:42.455Z,6.80
2022-11-17T09:41:48.111Z,7.60
2022-11-17T09:44:34.497Z,7.47
2022-11-17T09:47:35.989Z,7.15
2022-11-17T09:50:24.576Z,7.32
2022-11-17T09:53:00.511Z,7.68
2022-11-17T09:55:40.574Z,8.10
2022-11-17T09:58:14.749Z,7.70
2022-11-17T10:00:48.774Z,8.77
2022-11-17T10:03:42.056Z,8.43
2022-11-17T10:06:19.238Z,8.32
2022-11-17T10:09:01.320Z,8.80
2022-11-17T10:11:37.245Z,8.98
2022-11-17T10:14:13.618Z,9.77
2022-11-17T10:16:59.355Z,8.90
2022-11-17T10:19:34.513Z,9.45
2022-11-17T10:22:05.303Z,8.93
2022-11-17T10:24:35.139Z,9.75
2022-11-17T10:27:05.439Z,9.45
2022-11-17T10:29:32.925Z,9.45
2022-11-17T10:32:05.687Z,9.27
2022-11-17T10:34:41.175Z,9.35
2022-11-17T10:37:32.034Z,9.27
2022-11-17T10:40:39.871Z,9.10
2022-11-17T10:43:12.806Z,8.63
2022-11-17T10:48:33.532Z,7.68
2022-11-17T10:51:23.250Z,7.88
2022-11-17T10:54:16.089Z,7.78
2022-11-17T10:57:00.073Z,7.75
2022-11-17T10:59:44.319Z,8.15
2022-11-17T11:02:37.058Z,7.20
2022-11-17T11:05:18.007Z,8.50
2022-11-17T11:07:45.615Z,7.15
2022-11-17T11:10:34.502Z,7.68
2022-11-17T11:13:27.348Z,7.30
2022-11-17T11:15:54.443Z,7.20
2022-11-17T11:18:22.103Z,8.00
2022-11-17T11:21:23.271Z,7.00
2022-11-17T11:24:11.111Z,7.45
2022-11-17T11:27:23.141Z,7.50
2022-11-17T11:30:25.483Z,7.80
2022-11-17T11:33:37.915Z,7.70
2022-11-17T11:36:42.641Z,9.65
2022-11-17T11:39:52.993Z,7.93
2022-11-17T11:42:55.962Z,7.40
2022-11-17T11:45:42.745Z,7.60
2022-11-17T11:48:33.724Z,7.70
2022-11-17T11:51:29.525Z,7.47
2022-11-17T11:54:10.173Z,7.47
2022-11-17T11:56:44.207Z,8.07
2022-11-17T12:00:00.891Z,7.60
2022-11-17T12:02:51.638Z,7.72
2022-11-17T12:05:54.603Z,7.55
2022-11-17T12:08:35.387Z,7.40
2022-11-17T12:11:34.787Z,7.57
2022-11-17T12:14:05.888Z,7.38
2022-11-17T12:16:36.420Z,7.80
2022-11-17T12:20:09.173Z,7.30
2022-11-17T12:25:21.989Z,7.20
2022-11-17T12:27:55.179Z,7.53
2022-11-17T12:30:31.177Z,7.82
2022-11-17T12:33:00.657Z,7.30
2022-11-17T12:35:37.256Z,7.38
2022-11-17T12:38:19.926Z,7.07
2022-11-17T12:40:51.598Z,7.47
2022-11-17T12:43:26.091Z,7.63
2022-11-17T12:45:55.611Z,8.45
2022-11-17T12:48:36.145Z,7.93
2022-11-17T12:51:27.709Z,8.90
2022-11-17T12:54:22.559Z,7.93
2022-11-17T12:57:34.483Z,8.38
2022-11-17T13:00:07.484Z,7.82
2022-11-17T13:03:22.067Z,8.20
2022-11-17T13:06:34.369Z,8.38
2022-11-17T13:09:06.082Z,8.20
2022-11-17T13:11:33.979Z,7.78
2022-11-17T13:14:14.617Z,7.95
2022-11-17T13:16:51.162Z,8.57
2022-11-17T13:19:32.833Z,8.02
2022-11-17T13:22:05.766Z,8.77
2022-11-17T13:24:39.800Z,8.98
2022-11-17T13:27:38.020Z,8.48
2022-11-17T13:30:31.498Z,9.10
2022-11-17T13:35:32.348Z,8.52
2022-11-17T13:38:11.566Z,8.93
2022-11-17T13:40:42.373Z,9.63
2022-11-17T13:43:18.333Z,9.40
2022-11-17T13:45:47.173Z,9.35
2022-11-17T13:48:37.082Z,9.38
2022-11-17T13:51:35.047Z,9.82
2022-11-17T13:54:04.740Z,10.32
2022-11-17T13:56:40.811Z,9.18
2022-11-17T13:59:39.001Z,7.85
2022-11-17T14:02:20.501Z,8.32
2022-11-17T14:05:10.695Z,8.70
2022-11-17T14:07:39.420Z,8.75
2022-11-17T14:10:21.626Z,8.43
2022-11-17T14:13:20.512Z,8.32
2022-11-17T14:15:57.818Z,9.07
2022-11-17T14:18:37.328Z,12.27
2022-11-17T14:21:17.237Z,12.93
2022-11-17T14:23:45.210Z,10.68
2022-11-17T14:26:24.895Z,11.00
2022-11-17T14:28:53.064Z,10.30
2022-11-17T14:31:20.224Z,10.70
2022-11-17T14:33:47.271Z,10.25
2022-11-17T14:36:17.961Z,10.98
2022-11-17T14:38:46.616Z,11.00
2022-11-17T14:41:18.663Z,10.80
2022-11-17T14:43:46.622Z,11.30
2022-11-17T14:46:26.816Z,12.23
2022-11-17T14:48:55.496Z,11.63
2022-11-17T14:51:22.918Z,11.73
2022-11-17T14:53:50.638Z,13.55
2022-11-17T14:56:21.192Z,15.77
2022-11-17T14:58:54.186Z,15.45
2022-11-17T15:04:15.330Z,16.55
2022-11-17T15:06:48.395Z,11.82
2022-11-17T15:09:16.466Z,15.15
2022-11-17T15:11:43.596Z,16.20
2022-11-17T15:14:11.548Z,13.82
2022-11-17T15:16:38.528Z,14.10
2022-11-17T15:19:06.731Z,14.10
2022-11-17T15:21:33.940Z,14.82
2022-11-17T15:24:03.828Z,13.77
2022-11-17T15:26:31.385Z,13.25
2022-11-17T15:28:58.673Z,12.32
2022-11-17T15:31:25.869Z,12.18
2022-11-17T15:33:52.999Z,12.57
2022-11-17T15:36:23.042Z,13.50
2022-11-17T15:38:50.414Z,13.48
2022-11-17T15:41:17.456Z,15.63
2022-11-17T15:43:45.640Z,14.60
2022-11-17T15:46:18.227Z,15.05
2022-11-17T15:48:49.118Z,14.18
2022-11-17T15:51:19.665Z,15.38
2022-11-17T15:53:48.988Z,15.43
2022-11-17T16:07:56.546Z,19.33
2022-11-17T16:10:23.508Z,17.42
2022-11-17T16:12:51.461Z,16.67
2022-11-17T16:15:18.659Z,15.85
2022-11-17T16:17:45.745Z,14.98
2022-11-17T16:20:13.009Z,15.88
2022-11-17T16:22:40.102Z,14.48
2022-11-17T16:25:10.583Z,14.02
2022-11-17T16:27:37.669Z,13.98
2022-11-17T16:30:05.401Z,12.82
2022-11-17T16:32:32.521Z,13.02
2022-11-17T16:34:59.754Z,14.40
2022-11-17T16:37:26.685Z,15.57
2022-11-17T16:39:55.105Z,14.45
2022-11-17T16:42:22.086Z,15.70
2022-11-17T16:44:49.115Z,17.55
2022-11-17T16:47:16.191Z,16.58
2022-11-17T16:49:45.733Z,15.77
2022-11-17T16:54:43.022Z,17.15
2022-11-17T16:57:10.144Z,18.27
2022-11-17T16:59:37.182Z,18.98
2022-11-17T17:02:04.276Z,20.48
2022-11-17T17:04:31.301Z,20.35
2022-11-17T17:06:58.621Z,20.02
2022-11-17T17:09:28.010Z,18.33
2022-11-17T17:11:55.389Z,17.92
2022-11-17T17:14:22.615Z,19.45
2022-11-17T17:16:49.994Z,21.23
2022-11-17T17:19:17.116Z,25.13
2022-11-17T17:21:45.505Z,23.50
2022-11-17T17:24:13.024Z,22.63
2022-11-17T17:26:40.689Z,21.25
2022-11-17T17:29:08.495Z,21.48
2022-11-17T17:31:39.246Z,21.38
2022-11-17T17:34:07.814Z,20.05
2022-11-17T17:36:37.217Z,19.48
2022-11-17T17:39:05.759Z,18.73
2022-11-17T17:41:39.258Z,18.73
2022-11-17T17:44:11.267Z,21.05
2022-11-17T17:46:39.028Z,22.38
2022-11-17T17:49:07.168Z,19.80
2022-11-17T17:51:39.982Z,19.60
2022-11-17T17:54:09.981Z,14.43
2022-11-17T17:56:36.926Z,20.27
2022-11-17T17:59:03.949Z,18.85
2022-11-17T18:01:36.925Z,18.70
2022-11-17T18:06:45.963Z,18.67
2022-11-17T18:09:15.473Z,19.10
2022-11-17T18:11:46.121Z,19.77
2022-11-17T18:14:13.597Z,20.67
2022-11-17T18:16:41.042Z,20.90
2022-11-17T18:19:09.800Z,20.30
2022-11-17T18:21:37.136Z,20.13
2022-11-17T18:24:04.845Z,24.25
2022-11-17T18:26:37.175Z,29.60
2022-11-17T18:29:16.661Z,31.17
2022-11-17T18:31:47.233Z,28.65
2022-11-17T18:34:18.954Z,25.52
2022-11-17T18:36:46.182Z,24.40
2022-11-17T18:39:17.782Z,25.70
2022-11-17T18:41:45.650Z,20.23
2022-11-17T18:44:15.153Z,25.88
2022-11-17T18:46:42.164Z,22.67
2022-11-17T18:49:09.774Z,24.75
2022-11-17T18:51:36.772Z,26.73
2022-11-17T18:54:04.838Z,33.80
2022-11-17T18:56:35.596Z,35.38
2022-11-17T18:59:11.389Z,30.73
2022-11-17T19:01:41.264Z,29.60
2022-11-17T19:04:08.788Z,28.17
2022-11-17T19:06:36.496Z,28.02
2022-11-17T19:09:06.653Z,30.05
2022-11-17T19:11:34.654Z,44.92
2022-11-17T19:14:04.271Z,39.17
2022-11-17T19:16:32.615Z,30.75
2022-11-17T19:19:00.091Z,45.53
2022-11-17T19:21:35.949Z,27.73
2022-11-17T19:24:04.520Z,23.13
2022-11-17T19:26:35.797Z,23.20
2022-11-17T19:29:15.679Z,23.50
2022-11-17T19:31:43.907Z,25.65
2022-11-17T19:34:11.385Z,26.65
2022-11-17T19:36:38.403Z,25.63
2022-11-17T19:39:05.413Z,27.92
2022-11-17T19:41:45.143Z,33.42
2022-11-17T19:44:12.449Z,26.00
2022-11-17T19:46:39.501Z,31.65
2022-11-17T19:49:08.139Z,31.70
2022-11-17T19:51:37.067Z,25.88
2022-11-17T19:54:09.469Z,24.63
2022-11-17T19:56:38.311Z,22.33
2022-11-17T19:59:07.659Z,20.65
2022-11-17T20:01:36.854Z,20.15
2022-11-17T20:04:04.600Z,20.50
2022-11-17T20:06:37.586Z,21.88
2022-11-17T20:11:36.944Z,18.65
2022-11-17T20:14:04.385Z,19.80
2022-11-17T20:16:32.257Z,19.63
2022-11-17T20:19:02.906Z,19.92
2022-11-17T20:21:31.189Z,18.80
2022-11-17T20:23:59.211Z,18.38
2022-11-17T20:26:30.877Z,18.38
2022-11-17T20:28:59.535Z,19.13
2022-11-17T20:31:32.876Z,19.70
2022-11-17T20:34:01.659Z,19.25
2022-11-17T20:36:31.653Z,19.13
2022-11-17T20:39:03.104Z,18.60
2022-11-17T20:41:30.826Z,18.10
2022-11-17T20:44:00.201Z,16.85
2022-11-17T20:46:27.571Z,15.82
2022-11-17T20:48:54.694Z,14.68
2022-11-17T20:51:24.466Z,12.43
2022-11-17T20:53:53.678Z,12.75
2022-11-17T20:56:21.187Z,12.60
2022-11-17T20:58:49.013Z,12.18
2022-11-17T21:01:22.587Z,13.15
2022-11-17T21:03:49.959Z,13.48
2022-11-17T21:06:18.039Z,15.00
2022-11-17T21:08:46.591Z,15.18
2022-11-17T21:11:35.743Z,15.70
2022-11-17T21:14:05.551Z,14.98
2022-11-17T21:16:34.236Z,15.68
2022-11-17T21:19:01.478Z,15.15
2022-11-17T21:21:28.695Z,15.25
2022-11-17T21:23:56.229Z,15.20
2022-11-17T21:26:23.702Z,14.43
2022-11-17T21:28:54.075Z,14.77
2022-11-17T21:31:24.869Z,15.55
2022-11-17T21:33:57.967Z,15.88
2022-11-17T21:36:27.434Z,15.23
2022-11-17T21:38:54.963Z,15.25
2022-11-17T21:41:28.660Z,15.60
2022-11-17T21:44:00.060Z,15.13
2022-11-17T21:46:31.110Z,15.25
2022-11-17T21:48:59.769Z,15.43
2022-11-17T21:51:33.487Z,14.98
2022-11-17T21:54:04.403Z,15.45
2022-11-17T21:56:32.234Z,14.50
2022-11-17T21:59:06.454Z,14.57
2022-11-17T22:01:34.894Z,13.18
2022-11-17T22:04:02.293Z,12.80
2022-11-17T22:06:30.329Z,13.73
2022-11-17T22:08:59.076Z,13.38
2022-11-17T22:11:36.138Z,12.95
2022-11-17T22:14:20.074Z,13.30
2022-11-17T22:16:53.248Z,12.88
2022-11-17T22:19:24.417Z,14.43
2022-11-17T22:21:54.285Z,14.80
2022-11-17T22:24:21.719Z,15.05
2022-11-17T22:26:48.925Z,15.38
2022-11-17T22:29:19.973Z,15.60
2022-11-17T22:31:48.926Z,39.97
2022-11-17T22:34:17.423Z,38.58
2022-11-17T22:36:44.431Z,44.80
2022-11-17T22:39:11.432Z,38.67
2022-11-17T22:41:38.516Z,37.53
2022-11-17T22:44:06.369Z,20.42
2022-11-17T22:46:34.965Z,15.07
2022-11-17T22:49:02.068Z,13.20
2022-11-17T22:51:47.691Z,14.60
2022-11-17T22:54:14.794Z,13.98
2022-11-17T22:56:41.811Z,14.80
2022-11-17T22:59:09.649Z,14.60
2022-11-17T23:01:36.740Z,15.18
2022-11-17T23:04:04.746Z,14.68
2022-11-17T23:06:31.795Z,14.05
2022-11-17T23:08:59.140Z,14.07
2022-11-17T23:11:37.888Z,15.00
2022-11-17T23:14:12.186Z,13.20
2022-11-17T23:16:40.157Z,13.40
2022-11-17T23:19:10.271Z,12.85
2022-11-17T23:21:37.338Z,11.98
2022-11-17T23:24:05.040Z,11.50
2022-11-17T23:26:32.042Z,9.07
2022-11-17T23:28:59.112Z,9.32
2022-11-17T23:31:27.898Z,7.95
2022-11-17T23:33:55.060Z,8.85
2022-11-17T23:36:23.183Z,8.38
2022-11-17T23:38:51.595Z,8.68
2022-11-17T23:41:22.884Z,7.47
2022-11-17T23:43:52.417Z,8.20
2022-11-17T23:46:23.749Z,7.93
2022-11-17T23:48:51.027Z,7.78
2022-11-17T23:51:23.674Z,8.63
2022-11-17T23:53:51.245Z,8.98
2022-11-17T23:56:20.654Z,7.93
2022-11-17T23:58:48.323Z,7.72
